Pagina principale
METAR-TAF:

METAR-TAF

Aeroporti :

Passo Rolle, Italia

latitudine: 46-18N, longitudine: 011-47E, altezza: 2004 m

Osservazione

Il bollettino è stato emesso 1 ora e 23 minuti fa, alle 17:55 UTC
Vento 11 kt da est
Temperature 7°C
Umidità 100%
Pressione 1022 hPa
Visibilità 10 km o più
Nuvoloso ad un'altezza di 1500 ft

METAR: LIVR 231755Z 09011KT 9999 BKN015 07/07 Q1022 RMK BKN MON GEN INC VIS MIN 9999

Ora: 21:18 (19:18 UTC)


TAF: mancante

Osservazioni e previsioni meteorologiche di più di 4000 aeroporti (messaggi METAR e TAF).

Le stazioni disponibili sono rappresentate dai dischi gialli e rossi sulla carta.

Puntare il mouse per vedere il nome della stazione.

Clicca sopra per visualizzare le osservazioni e previsioni meteorologiche.

Per cambiare la mappa : fare clic sui pulsanti verdi con una croce nera per ingrandire, il pulsante verde con un trattino per diminuire, o sulla freccia verde per le mappe adiacenti.


METAR-TAF: